Time;durP1;ratioP1;P1;durP2;ratioP2;P2;SDS_P1;SDS_P2;PMS_P1;PMS_P2;Temp;Humidity;BMP_temperature;BMP_pressure;BME280_temperature;BME280_humidity;BME280_pressure;Samples;Min_cycle;Max_cycle;Signal;HPM_P1;HPM_P2
2022/05/04 00:00:31;;;;;;;25.08;10.00;;;12.70;99.90;;;;;;5035452;28;20037;-72
2022/05/04 00:02:57;;;;;;;31.00;9.70;;;12.80;99.90;;;;;;5035182;28;20047;-72
2022/05/04 00:05:22;;;;;;;23.85;10.13;;;12.60;99.90;;;;;;5052780;28;20047;-71
2022/05/04 00:07:48;;;;;;;19.92;9.98;;;12.60;99.90;;;;;;5035384;28;20025;-72
2022/05/04 00:10:14;;;;;;;19.73;9.27;;;12.40;99.90;;;;;;5035000;28;20071;-72
2022/05/04 00:12:40;;;;;;;26.90;10.38;;;12.40;99.90;;;;;;5052851;28;20024;-72
2022/05/04 00:15:06;;;;;;;23.38;9.98;;;12.50;99.90;;;;;;5035380;28;20127;-72
2022/05/04 00:17:32;;;;;;;21.48;9.32;;;12.60;99.90;;;;;;5035058;28;20021;-72
2022/05/04 00:19:58;;;;;;;19.40;9.32;;;12.50;99.90;;;;;;5053068;28;20059;-71
2022/05/04 00:22:26;;;;;;;24.83;8.90;;;12.40;99.90;;;;;;5052855;28;20036;-72
2022/05/04 00:24:52;;;;;;;21.10;8.68;;;12.60;99.90;;;;;;5057642;28;20527;-72
2022/05/04 00:27:18;;;;;;;30.10;10.30;;;12.40;99.90;;;;;;5073051;28;20012;-72
2022/05/04 00:29:45;;;;;;;20.83;9.98;;;12.30;99.90;;;;;;5072965;28;20437;-72
2022/05/04 00:32:12;;;;;;;16.85;9.07;;;12.40;99.90;;;;;;5055005;28;20123;-72
2022/05/04 00:34:39;;;;;;;26.08;9.02;;;12.40;99.90;;;;;;5072587;28;20021;-74
2022/05/04 00:37:05;;;;;;;21.88;11.00;;;12.60;99.90;;;;;;5071930;28;20373;-72
2022/05/04 00:39:31;;;;;;;20.15;9.23;;;12.60;99.90;;;;;;5072443;28;20449;-73
2022/05/04 00:42:11;;;;;;;24.83;10.50;;;12.60;99.90;;;;;;5073056;28;20107;-73
2022/05/04 00:44:38;;;;;;;18.45;9.13;;;12.60;99.90;;;;;;5073134;28;20374;-75
2022/05/04 00:47:05;;;;;;;20.50;9.77;;;12.60;99.90;;;;;;5063617;28;20520;-75
2022/05/04 00:49:31;;;;;;;22.98;9.20;;;12.70;99.90;;;;;;5034807;28;20033;-74
2022/05/04 00:51:57;;;;;;;21.55;8.95;;;12.50;99.90;;;;;;5053027;28;20021;-74
2022/05/04 00:54:24;;;;;;;22.35;9.38;;;12.20;99.90;;;;;;5052566;28;20079;-74
2022/05/04 00:56:51;;;;;;;18.10;9.40;;;12.30;99.90;;;;;;5052743;28;20025;-74
2022/05/04 00:59:17;;;;;;;19.17;8.10;;;12.20;99.90;;;;;;5034881;28;20374;-74
2022/05/04 01:01:42;;;;;;;19.83;10.57;;;12.10;99.90;;;;;;5052541;28;20025;-75
2022/05/04 01:04:08;;;;;;;25.48;10.10;;;12.20;99.90;;;;;;5052438;28;20492;-74
2022/05/04 01:06:34;;;;;;;28.23;9.07;;;12.30;99.90;;;;;;5052243;28;20048;-75
2022/05/04 01:09:00;;;;;;;21.13;9.00;;;12.10;99.90;;;;;;5034712;28;20071;-75
2022/05/04 01:11:25;;;;;;;23.92;10.10;;;12.10;99.90;;;;;;5052601;28;20056;-74
2022/05/04 01:14:10;;;;;;;19.63;9.82;;;12.40;99.90;;;;;;5052369;28;20025;-74
2022/05/04 01:16:38;;;;;;;29.75;9.07;;;12.40;99.90;;;;;;5052510;28;20037;-75
2022/05/04 01:19:04;;;;;;;27.35;11.48;;;12.30;99.90;;;;;;5035127;28;20079;-74
2022/05/04 01:21:30;;;;;;;23.00;10.27;;;12.20;99.90;;;;;;5032293;28;20033;-74
2022/05/04 01:24:00;;;;;;;17.52;10.65;;;12.10;99.90;;;;;;5032335;28;20033;-74
2022/05/04 01:26:26;;;;;;;19.10;10.00;;;12.10;99.90;;;;;;5032274;28;20477;-74
2022/05/04 01:28:52;;;;;;;20.17;10.20;;;12.20;99.90;;;;;;5032477;28;20393;-75
2022/05/04 01:31:18;;;;;;;20.35;10.32;;;12.10;99.90;;;;;;5032890;28;20021;-74
2022/05/04 01:33:43;;;;;;;27.70;11.02;;;12.00;99.90;;;;;;5032619;28;20393;-74
2022/05/04 01:36:09;;;;;;;18.98;10.15;;;12.00;99.90;;;;;;5031835;28;20033;-73
2022/05/04 01:38:35;;;;;;;24.10;10.77;;;11.70;99.90;;;;;;5031108;28;20048;-74
2022/05/04 01:41:02;;;;;;;20.63;10.95;;;11.70;99.90;;;;;;5032382;28;20116;-73
2022/05/04 01:43:28;;;;;;;23.30;9.95;;;11.80;99.90;;;;;;5031010;28;20474;-74
2022/05/04 01:45:54;;;;;;;26.08;9.52;;;12.00;99.90;;;;;;5031802;28;20041;-74
2022/05/04 01:48:20;;;;;;;18.50;8.63;;;11.70;99.90;;;;;;5051884;28;20068;-74
2022/05/04 01:50:46;;;;;;;16.25;8.93;;;11.70;99.90;;;;;;5055668;28;20044;-74
2022/05/04 01:53:12;;;;;;;17.65;7.85;;;11.60;99.90;;;;;;5055897;28;20063;-74
2022/05/04 01:55:39;;;;;;;18.60;7.60;;;11.70;99.90;;;;;;5055449;28;20032;-74
2022/05/04 01:58:05;;;;;;;20.38;6.82;;;11.70;99.90;;;;;;5055674;28;20342;-74
2022/05/04 02:00:31;;;;;;;15.38;7.13;;;11.60;99.90;;;;;;5055388;28;20033;-74
2022/05/04 02:02:58;;;;;;;19.80;6.70;;;11.60;99.90;;;;;;5055430;28;20036;-73
2022/05/04 02:05:25;;;;;;;12.82;6.78;;;11.70;99.90;;;;;;5054874;28;20051;-74
2022/05/04 02:07:50;;;;;;;20.70;7.00;;;11.60;99.90;;;;;;5055398;28;20098;-74
2022/05/04 02:10:16;;;;;;;18.60;6.45;;;11.60;99.90;;;;;;5055325;28;20512;-74
2022/05/04 02:12:43;;;;;;;16.52;6.20;;;11.50;99.90;;;;;;5055428;28;20112;-74
2022/05/04 02:15:10;;;;;;;14.52;6.95;;;11.60;99.90;;;;;;5055318;28;20116;-74
2022/05/04 02:17:36;;;;;;;17.50;7.38;;;11.50;99.90;;;;;;5037714;28;20090;-74
2022/05/04 02:20:04;;;;;;;19.60;7.07;;;11.40;99.90;;;;;;5054828;28;20033;-74
2022/05/04 02:22:29;;;;;;;15.48;6.82;;;11.50;99.90;;;;;;5055280;28;20142;-74
2022/05/04 02:24:55;;;;;;;20.35;6.90;;;11.40;99.90;;;;;;5055064;28;20469;-73
2022/05/04 02:27:21;;;;;;;19.98;6.93;;;11.50;99.90;;;;;;5055145;28;20029;-73
2022/05/04 02:29:47;;;;;;;23.40;7.57;;;11.50;99.90;;;;;;5055155;28;20029;-74
2022/05/04 02:32:13;;;;;;;17.90;7.47;;;11.70;99.90;;;;;;5054794;28;20386;-74
2022/05/04 02:37:54;;;;;;;17.77;7.30;;;11.60;99.90;;;;;;5054552;28;20036;-74
2022/05/04 02:40:27;;;;;;;20.30;7.40;;;11.50;99.90;;;;;;4973941;28;20039;-74
2022/05/04 02:42:53;;;;;;;13.65;7.05;;;11.40;99.90;;;;;;5038357;28;20087;-74
2022/05/04 02:45:19;;;;;;;25.20;7.60;;;11.40;99.90;;;;;;5054424;28;20075;-74
2022/05/04 02:47:45;;;;;;;17.23;6.82;;;11.40;99.90;;;;;;5054436;28;20053;-76
2022/05/04 02:50:11;;;;;;;14.18;7.03;;;11.40;99.90;;;;;;5054546;28;20083;-75
2022/05/04 02:52:36;;;;;;;17.52;7.72;;;11.30;99.90;;;;;;5054628;28;20053;-75
2022/05/04 02:55:03;;;;;;;16.38;7.40;;;11.20;99.90;;;;;;5054490;28;20120;-76
2022/05/04 02:57:29;;;;;;;16.08;7.72;;;11.30;99.90;;;;;;5054772;28;20416;-75
2022/05/04 02:59:55;;;;;;;20.27;8.07;;;11.10;99.90;;;;;;5053982;28;20116;-76
2022/05/04 03:02:27;;;;;;;15.15;7.28;;;10.70;99.90;;;;;;5053931;28;20025;-76
2022/05/04 03:05:06;;;;;;;17.70;8.45;;;10.50;99.90;;;;;;5054225;28;20068;-76
2022/05/04 03:07:32;;;;;;;19.42;7.28;;;10.30;99.90;;;;;;5054279;28;20108;-75
2022/05/04 03:09:58;;;;;;;20.77;8.55;;;10.40;99.90;;;;;;5054344;28;20033;-75
2022/05/04 03:12:25;;;;;;;19.45;8.45;;;10.60;99.90;;;;;;5054211;28;20535;-75
2022/05/04 03:14:51;;;;;;;17.05;7.72;;;10.90;99.90;;;;;;5054056;28;20063;-73
2022/05/04 03:17:18;;;;;;;19.88;8.50;;;10.70;99.90;;;;;;5053664;28;20028;-76
2022/05/04 03:19:44;;;;;;;15.20;8.18;;;10.70;99.90;;;;;;5054147;28;20028;-76
2022/05/04 03:22:10;;;;;;;15.63;7.28;;;10.40;99.90;;;;;;5054098;28;20025;-75
2022/05/04 03:24:36;;;;;;;18.85;8.25;;;10.30;99.90;;;;;;5053807;28;20032;-75
2022/05/04 03:27:03;;;;;;;21.55;8.68;;;9.90;99.90;;;;;;5053960;28;20033;-75
2022/05/04 03:29:28;;;;;;;26.23;8.23;;;9.80;99.90;;;;;;5053916;28;20033;-75
2022/05/04 03:31:54;;;;;;;16.65;7.85;;;10.10;99.90;;;;;;5053424;28;20025;-75
2022/05/04 03:34:20;;;;;;;19.50;8.68;;;10.20;99.90;;;;;;5035947;28;20472;-75
2022/05/04 03:36:46;;;;;;;17.20;8.48;;;10.00;99.90;;;;;;5053547;28;20477;-75
2022/05/04 03:39:12;;;;;;;22.40;9.05;;;9.90;99.90;;;;;;5053918;28;20035;-75
2022/05/04 03:41:38;;;;;;;18.40;10.00;;;9.60;99.90;;;;;;5053794;28;20033;-75
2022/05/04 03:44:05;;;;;;;20.08;8.43;;;9.50;99.90;;;;;;5053460;28;20041;-75
2022/05/04 03:46:45;;;;;;;19.30;8.98;;;9.30;99.90;;;;;;5053235;28;20021;-75
2022/05/04 03:49:12;;;;;;;21.48;8.40;;;9.50;99.90;;;;;;5053520;28;20033;-75
2022/05/04 03:51:39;;;;;;;14.05;8.00;;;9.50;99.90;;;;;;5053469;28;20033;-75
2022/05/04 03:54:05;;;;;;;15.18;8.30;;;9.70;99.90;;;;;;5053486;28;20036;-75
2022/05/04 03:56:31;;;;;;;18.05;7.70;;;10.10;99.90;;;;;;5053469;28;20389;-75
2022/05/04 03:58:56;;;;;;;15.95;8.10;;;10.20;99.90;;;;;;5053282;28;20469;-74
2022/05/04 04:01:22;;;;;;;17.23;7.93;;;9.90;99.90;;;;;;5053283;28;20037;-75
2022/05/04 04:03:48;;;;;;;19.77;8.32;;;9.80;99.90;;;;;;5034994;28;20024;-75
2022/05/04 04:06:15;;;;;;;20.10;8.07;;;9.80;99.90;;;;;;5053316;28;20033;-75
2022/05/04 04:08:41;;;;;;;21.75;8.95;;;9.90;99.90;;;;;;5053098;28;20021;-74
2022/05/04 04:11:08;;;;;;;18.95;7.97;;;9.80;99.90;;;;;;5053283;28;20048;-74
2022/05/04 04:13:34;;;;;;;17.20;8.82;;;9.50;99.90;;;;;;5053320;28;20362;-74
2022/05/04 04:15:59;;;;;;;19.33;9.18;;;9.20;99.90;;;;;;5052829;28;20032;-74
2022/05/04 04:18:26;;;;;;;19.70;9.70;;;9.10;99.90;;;;;;5052959;28;20044;-74
2022/05/04 04:23:39;;;;;;;20.35;8.00;;;8.90;99.90;;;;;;5034868;28;20099;-74
2022/05/04 04:26:06;;;;;;;20.52;7.82;;;9.00;99.90;;;;;;5052944;28;20048;-75
2022/05/04 04:28:34;;;;;;;18.10;8.25;;;9.10;99.90;;;;;;5052825;28;20131;-74
2022/05/04 04:31:00;;;;;;;30.55;9.88;;;9.50;99.90;;;;;;5052386;28;20037;-75
2022/05/04 04:33:26;;;;;;;18.48;8.57;;;9.70;99.90;;;;;;5052824;28;20017;-75
2022/05/04 04:35:59;;;;;;;25.75;8.40;;;9.80;99.90;;;;;;5052895;28;20053;-75
2022/05/04 04:38:25;;;;;;;20.92;9.50;;;9.70;99.90;;;;;;5053284;28;20083;-75
2022/05/04 04:40:51;;;;;;;21.85;8.80;;;9.50;99.90;;;;;;5052674;28;20443;-74
2022/05/04 04:43:17;;;;;;;23.80;9.00;;;9.30;99.90;;;;;;5052676;28;20104;-75
2022/05/04 04:45:47;;;;;;;27.70;9.00;;;9.40;99.90;;;;;;5052232;28;20064;-75
2022/05/04 04:48:18;;;;;;;19.35;8.25;;;9.40;99.90;;;;;;5052237;28;20531;-74
2022/05/04 04:50:45;;;;;;;16.95;8.20;;;9.70;99.90;;;;;;5052642;28;20028;-75
2022/05/04 04:53:11;;;;;;;23.92;8.73;;;9.70;99.90;;;;;;5052544;28;20028;-74
2022/05/04 04:55:36;;;;;;;15.15;8.90;;;9.40;99.90;;;;;;5052571;28;20048;-74
2022/05/04 04:58:02;;;;;;;17.98;7.78;;;9.20;99.90;;;;;;5058348;28;20068;-74
2022/05/04 05:00:28;;;;;;;21.73;8.55;;;9.20;99.90;;;;;;5072014;28;20021;-74
2022/05/04 05:02:54;;;;;;;24.35;9.35;;;9.10;99.90;;;;;;5067254;28;20523;-74
2022/05/04 05:05:20;;;;;;;31.20;10.48;;;9.40;99.90;;;;;;5052232;28;20603;-74
2022/05/04 05:07:45;;;;;;;19.52;8.98;;;9.40;99.90;;;;;;5052503;28;20034;-74
2022/05/04 05:10:11;;;;;;;26.90;9.82;;;9.60;99.90;;;;;;5052394;28;20028;-74
2022/05/04 05:12:37;;;;;;;19.88;9.68;;;9.50;99.90;;;;;;5052519;28;20057;-74
2022/05/04 05:17:49;;;;;;;21.40;10.27;;;9.70;99.90;;;;;;5052282;28;20061;-75
2022/05/04 05:20:15;;;;;;;24.33;10.00;;;9.50;99.90;;;;;;5052243;28;20475;-74
2022/05/04 05:22:40;;;;;;;29.33;10.27;;;9.90;99.90;;;;;;5052418;28;20021;-75
2022/05/04 05:25:06;;;;;;;36.03;12.48;;;10.10;99.90;;;;;;5055121;28;20039;-75
2022/05/04 05:27:32;;;;;;;26.85;12.48;;;10.10;99.90;;;;;;5056131;28;20025;-74
2022/05/04 05:29:58;;;;;;;22.83;11.10;;;10.10;99.90;;;;;;5056053;28;20129;-75
2022/05/04 05:32:24;;;;;;;37.80;11.93;;;10.40;99.90;;;;;;5038218;28;20505;-74
2022/05/04 05:34:50;;;;;;;25.02;11.50;;;10.60;99.90;;;;;;5055654;28;20033;-75
2022/05/04 05:37:17;;;;;;;30.05;12.02;;;10.60;99.90;;;;;;5038306;28;20486;-75
2022/05/04 05:39:43;;;;;;;32.85;13.40;;;10.60;99.90;;;;;;5056118;28;20025;-73
2022/05/04 05:42:09;;;;;;;25.35;11.90;;;10.70;99.90;;;;;;5037980;28;20029;-74
2022/05/04 05:44:35;;;;;;;25.83;11.68;;;10.70;99.90;;;;;;5055612;28;20083;-74
2022/05/04 05:47:01;;;;;;;24.50;11.80;;;10.50;99.90;;;;;;5037580;28;20045;-74
2022/05/04 05:49:28;;;;;;;34.72;14.07;;;10.40;99.90;;;;;;5055779;28;20029;-74
2022/05/04 05:51:54;;;;;;;34.85;12.30;;;10.30;99.90;;;;;;5055663;28;20028;-73
2022/05/04 05:54:20;;;;;;;26.80;12.23;;;10.30;99.90;;;;;;5055798;28;20032;-76
2022/05/04 05:56:46;;;;;;;32.28;12.27;;;10.60;99.90;;;;;;5055168;28;20078;-74
2022/05/04 05:59:14;;;;;;;33.35;13.48;;;11.00;99.90;;;;;;5055343;28;20066;-74
2022/05/04 06:01:41;;;;;;;22.20;10.43;;;11.30;99.90;;;;;;5037450;28;20120;-74
2022/05/04 06:04:08;;;;;;;24.30;11.48;;;11.50;99.90;;;;;;5055321;28;20036;-74
2022/05/04 06:06:34;;;;;;;18.88;9.15;;;11.60;99.90;;;;;;5055425;28;20033;-74
2022/05/04 06:08:59;;;;;;;25.50;9.10;;;11.50;99.90;;;;;;5055322;28;20025;-73
2022/05/04 06:11:25;;;;;;;20.02;7.93;;;11.70;99.90;;;;;;5055204;28;20033;-74
2022/05/04 06:13:54;;;;;;;25.35;8.48;;;11.80;99.90;;;;;;5055427;28;20032;-74
2022/05/04 06:16:20;;;;;;;21.23;7.53;;;11.50;99.90;;;;;;5037297;28;20033;-74
2022/05/04 06:18:45;;;;;;;20.08;8.30;;;11.70;99.90;;;;;;5055257;28;20036;-74
2022/05/04 06:21:12;;;;;;;28.45;8.95;;;11.80;99.90;;;;;;5055140;28;20028;-73
2022/05/04 06:23:37;;;;;;;23.98;7.97;;;12.20;99.90;;;;;;5037498;28;20470;-74
2022/05/04 06:26:03;;;;;;;21.52;7.82;;;12.20;99.90;;;;;;5054538;28;20033;-74
2022/05/04 06:28:29;;;;;;;17.80;8.38;;;12.30;99.90;;;;;;5055228;28;20432;-74
2022/05/04 06:36:23;;;;;;;20.70;8.32;;;11.80;99.90;;;;;;5053870;28;20064;-74
2022/05/04 06:38:49;;;;;;;20.60;8.93;;;11.80;99.90;;;;;;5054895;28;20116;-73
2022/05/04 06:41:15;;;;;;;18.98;8.18;;;11.70;99.90;;;;;;5036722;28;20430;-74
2022/05/04 06:43:41;;;;;;;22.95;9.10;;;12.00;99.90;;;;;;5054853;28;20025;-74
2022/05/04 06:46:07;;;;;;;16.45;7.93;;;12.20;99.90;;;;;;5054392;28;20080;-74
2022/05/04 06:48:34;;;;;;;20.60;7.88;;;12.50;99.90;;;;;;5054706;28;20025;-73
2022/05/04 06:51:00;;;;;;;18.65;7.45;;;12.40;99.90;;;;;;5036690;28;20032;-73
2022/05/04 06:53:26;;;;;;;25.13;8.88;;;12.20;99.90;;;;;;5054865;28;20095;-74
2022/05/04 06:55:51;;;;;;;23.90;8.68;;;12.20;99.90;;;;;;5054104;28;20132;-74
2022/05/04 06:58:17;;;;;;;38.55;10.23;;;12.20;99.90;;;;;;5054673;28;20065;-74
2022/05/04 07:00:43;;;;;;;24.05;8.63;;;12.40;99.90;;;;;;5054576;28;20071;-73
2022/05/04 07:03:09;;;;;;;25.85;8.40;;;12.50;99.90;;;;;;5036493;28;20411;-74
2022/05/04 07:05:35;;;;;;;32.10;9.05;;;12.60;99.90;;;;;;5054026;28;20069;-74
2022/05/04 07:08:00;;;;;;;20.48;8.57;;;12.50;99.90;;;;;;5019948;28;20028;-74
2022/05/04 07:10:26;;;;;;;22.48;8.40;;;12.90;99.90;;;;;;5054260;28;20021;-74
2022/05/04 07:12:53;;;;;;;29.10;10.00;;;13.20;99.90;;;;;;5054137;28;20394;-74
2022/05/04 07:15:20;;;;;;;24.38;9.43;;;12.90;99.90;;;;;;5054244;28;20040;-74
2022/05/04 07:17:45;;;;;;;26.50;8.88;;;12.90;99.90;;;;;;5054076;28;20167;-74
2022/05/04 07:20:12;;;;;;;29.65;10.00;;;13.00;99.90;;;;;;5036183;28;20132;-73
2022/05/04 07:22:38;;;;;;;29.25;10.20;;;13.00;99.90;;;;;;5053922;28;20472;-74
2022/05/04 07:25:05;;;;;;;26.60;9.25;;;12.90;99.90;;;;;;5053438;28;20036;-74
2022/05/04 07:27:30;;;;;;;22.15;9.40;;;12.90;99.90;;;;;;5053931;28;20029;-75
2022/05/04 07:29:56;;;;;;;21.48;9.88;;;13.10;99.90;;;;;;5036205;28;20116;-74
2022/05/04 07:32:22;;;;;;;21.50;8.68;;;13.40;99.90;;;;;;5053839;28;20063;-74
2022/05/04 07:34:48;;;;;;;27.45;10.63;;;13.60;99.90;;;;;;5053659;28;20116;-74
2022/05/04 07:37:14;;;;;;;29.05;9.35;;;13.50;99.90;;;;;;5053695;28;20420;-75
2022/05/04 07:42:25;;;;;;;28.90;11.05;;;13.40;99.90;;;;;;5053665;28;20539;-74
2022/05/04 07:45:02;;;;;;;23.98;10.02;;;13.30;99.90;;;;;;5053590;28;20037;-74
2022/05/04 07:47:30;;;;;;;22.50;10.40;;;13.30;99.90;;;;;;5035272;28;20040;-74
2022/05/04 07:49:56;;;;;;;32.97;11.00;;;13.30;99.90;;;;;;5053278;28;20079;-74
2022/05/04 07:52:23;;;;;;;36.15;12.98;;;13.30;99.90;;;;;;5053577;28;20029;-74
2022/05/04 07:54:49;;;;;;;33.17;11.60;;;13.00;99.90;;;;;;5053234;28;20032;-74
2022/05/04 07:57:15;;;;;;;31.55;11.18;;;13.30;99.90;;;;;;5053355;28;20017;-74
2022/05/04 07:59:41;;;;;;;29.58;12.02;;;13.60;99.90;;;;;;5053656;28;20043;-74
2022/05/04 08:04:53;;;;;;;32.97;12.80;;;13.80;99.90;;;;;;5033152;28;20045;-74
2022/05/04 08:07:19;;;;;;;24.65;12.13;;;13.70;99.90;;;;;;5032867;28;20033;-74
2022/05/04 08:09:45;;;;;;;30.90;12.65;;;13.80;99.90;;;;;;5033478;28;20029;-74
2022/05/04 08:12:12;;;;;;;26.52;12.18;;;14.50;99.90;;;;;;5033102;28;20036;-74
2022/05/04 08:14:40;;;;;;;35.35;13.23;;;15.00;99.90;;;;;;5015529;28;20397;-74
2022/05/04 08:17:07;;;;;;;30.35;13.75;;;15.10;99.60;;;;;;5033200;28;20029;-74
2022/05/04 08:19:33;;;;;;;30.58;14.00;;;14.80;98.80;;;;;;5033145;28;20494;-75
2022/05/04 08:22:00;;;;;;;22.70;13.68;;;14.60;99.90;;;;;;5032837;28;20100;-74
2022/05/04 08:24:27;;;;;;;31.60;14.60;;;14.70;99.90;;;;;;5032890;28;20037;-74
2022/05/04 08:26:53;;;;;;;28.63;14.38;;;14.80;99.40;;;;;;5032961;28;20465;-74
2022/05/04 08:29:19;;;;;;;29.05;13.90;;;15.20;98.50;;;;;;5032975;28;20026;-74
2022/05/04 08:31:45;;;;;;;26.73;14.25;;;15.00;99.50;;;;;;5031803;28;20390;-74
2022/05/04 08:34:11;;;;;;;28.58;13.65;;;15.40;98.70;;;;;;5032774;28;20382;-75
2022/05/04 08:36:40;;;;;;;31.15;14.38;;;15.80;98.00;;;;;;5031263;28;20033;-74
2022/05/04 08:39:07;;;;;;;23.55;12.75;;;16.00;97.20;;;;;;5027483;28;20044;-75
2022/05/04 08:41:43;;;;;;;33.22;15.07;;;15.60;97.70;;;;;;5024380;28;20503;-75
2022/05/04 08:44:11;;;;;;;30.77;13.93;;;15.90;97.20;;;;;;5051825;28;20051;-74
2022/05/04 08:46:42;;;;;;;24.38;13.85;;;15.10;98.20;;;;;;5021837;28;20531;-75
2022/05/04 08:49:09;;;;;;;28.33;13.97;;;15.10;98.00;;;;;;5046317;28;20467;-75
2022/05/04 08:51:36;;;;;;;22.92;12.30;;;15.40;98.30;;;;;;5041999;28;20033;-75
2022/05/04 08:54:03;;;;;;;30.00;12.35;;;15.80;96.00;;;;;;5038758;28;20060;-74
2022/05/04 08:56:30;;;;;;;33.40;12.60;;;16.10;95.80;;;;;;5048732;28;20021;-75
2022/05/04 08:58:56;;;;;;;23.27;13.57;;;15.80;95.90;;;;;;5037983;28;20676;-74
2022/05/04 09:01:24;;;;;;;22.67;12.65;;;15.10;96.30;;;;;;5030639;28;20029;-75
2022/05/04 09:03:50;;;;;;;22.48;12.43;;;15.20;96.90;;;;;;5048391;28;20395;-75
2022/05/04 09:06:27;;;;;;;27.25;12.82;;;15.00;96.90;;;;;;5028980;28;20032;-75
2022/05/04 09:08:53;;;;;;;26.77;11.55;;;15.00;96.70;;;;;;5039920;28;20044;-75
2022/05/04 09:11:23;;;;;;;28.08;12.10;;;15.30;95.70;;;;;;5054711;28;20021;-74
2022/05/04 09:13:50;;;;;;;24.10;11.57;;;15.80;96.50;;;;;;5037543;28;20056;-74
2022/05/04 09:16:30;;;;;;;27.90;12.45;;;16.00;95.40;;;;;;5056205;28;20104;-74
2022/05/04 09:18:59;;;;;;;26.52;11.77;;;15.50;94.90;;;;;;5055941;28;20028;-74
2022/05/04 09:21:26;;;;;;;26.83;13.07;;;15.50;94.90;;;;;;5055434;28;20102;-75
2022/05/04 09:23:53;;;;;;;28.38;12.82;;;15.20;95.60;;;;;;5056413;28;20029;-75
2022/05/04 09:26:20;;;;;;;20.48;12.18;;;15.20;96.00;;;;;;5056022;28;20041;-74
2022/05/04 09:29:13;;;;;;;20.92;12.15;;;15.10;96.50;;;;;;5056149;28;20393;-75
2022/05/04 09:31:41;;;;;;;21.63;11.80;;;15.60;96.50;;;;;;5062864;28;20044;-74
2022/05/04 09:34:09;;;;;;;28.15;12.40;;;16.10;95.60;;;;;;5075809;28;20024;-74
2022/05/04 09:44:53;;;;;;;21.40;10.57;;;15.80;95.40;;;;;;5076453;28;20507;-74
2022/05/04 09:45:11;;;;;;;28.02;12.05;;;16.90;93.90;;;;;;5075606;28;20037;-75
2022/05/04 09:47:47;;;;;;;25.35;11.43;;;16.90;93.20;;;;;;5062076;28;20033;-74
2022/05/04 09:50:15;;;;;;;23.05;10.82;;;16.80;92.30;;;;;;5055318;28;20154;-75
2022/05/04 09:52:50;;;;;;;23.58;11.23;;;16.50;92.70;;;;;;5037972;28;20082;-75
2022/05/04 09:55:17;;;;;;;16.40;9.60;;;16.50;93.40;;;;;;5055394;28;20499;-75
2022/05/04 09:57:44;;;;;;;22.70;10.25;;;16.70;92.40;;;;;;5055698;28;20504;-75
2022/05/04 10:00:12;;;;;;;20.88;10.00;;;16.90;92.80;;;;;;5055625;28;20028;-75
2022/05/04 10:02:39;;;;;;;15.48;9.88;;;17.20;91.50;;;;;;5055594;28;20017;-75
2022/05/04 10:05:05;;;;;;;18.73;10.43;;;17.40;92.50;;;;;;5054923;28;20049;-75
2022/05/04 10:07:32;;;;;;;26.98;10.13;;;17.50;92.00;;;;;;5037551;28;20112;-74
2022/05/04 10:09:57;;;;;;;18.15;9.40;;;17.10;92.70;;;;;;5055036;28;20478;-74
2022/05/04 10:12:26;;;;;;;17.38;9.25;;;17.50;91.60;;;;;;5055524;28;20025;-74
2022/05/04 10:14:55;;;;;;;14.52;8.90;;;18.10;91.10;;;;;;5037565;28;20036;-75
2022/05/04 10:17:24;;;;;;;21.05;8.45;;;18.30;90.30;;;;;;5055201;28;20102;-74
2022/05/04 10:20:09;;;;;;;28.45;9.65;;;17.90;89.80;;;;;;5055137;28;20053;-75
2022/05/04 10:22:50;;;;;;;20.02;9.93;;;17.90;91.10;;;;;;5055121;28;20112;-75
2022/05/04 10:25:17;;;;;;;20.02;9.18;;;18.00;91.10;;;;;;5055078;28;20040;-75
2022/05/04 10:27:46;;;;;;;21.40;8.80;;;18.80;91.40;;;;;;5055342;28;20082;-75
2022/05/04 10:30:30;;;;;;;18.05;8.60;;;19.30;90.70;;;;;;5037319;28;20025;-75
2022/05/04 10:33:05;;;;;;;16.88;8.35;;;19.70;90.00;;;;;;5054602;28;20021;-75
2022/05/04 10:35:34;;;;;;;24.40;10.13;;;20.10;88.70;;;;;;5054941;28;20052;-75
2022/05/04 10:37:59;;;;;;;18.63;8.98;;;18.80;89.30;;;;;;5055083;28;20032;-74
2022/05/04 10:40:51;;;;;;;16.58;8.23;;;17.50;91.30;;;;;;5054646;28;20032;-74
2022/05/04 10:43:33;;;;;;;21.48;8.80;;;17.20;91.20;;;;;;5021799;28;20037;-75
2022/05/04 10:46:21;;;;;;;14.65;7.97;;;18.00;90.90;;;;;;5054548;28;20041;-75
2022/05/04 10:49:04;;;;;;;18.02;8.48;;;18.70;91.10;;;;;;5054581;28;20040;-75
2022/05/04 10:51:38;;;;;;;15.18;7.47;;;19.40;89.30;;;;;;5054497;28;20029;-75
2022/05/04 10:54:17;;;;;;;15.77;7.65;;;19.50;89.50;;;;;;5036890;28;20067;-76
2022/05/04 10:56:48;;;;;;;15.02;7.30;;;18.90;90.80;;;;;;5054464;28;20021;-74
2022/05/04 10:59:30;;;;;;;13.77;7.90;;;19.10;90.90;;;;;;5036721;28;20037;-75
2022/05/04 11:02:04;;;;;;;16.90;8.45;;;19.10;90.00;;;;;;5053999;28;20056;-75
2022/05/04 11:04:30;;;;;;;13.77;7.78;;;18.90;89.50;;;;;;5054246;28;20036;-74
2022/05/04 11:06:59;;;;;;;13.32;7.75;;;18.60;90.50;;;;;;5054324;28;20041;-75
2022/05/04 11:09:31;;;;;;;15.00;8.15;;;18.90;90.30;;;;;;5036507;28;20036;-74
2022/05/04 11:12:02;;;;;;;14.32;7.03;;;19.20;89.40;;;;;;5054364;28;20516;-75
2022/05/04 11:14:29;;;;;;;18.60;7.83;;;18.80;90.20;;;;;;5054245;28;20039;-75
2022/05/04 11:16:57;;;;;;;12.85;8.23;;;19.10;90.00;;;;;;5054496;28;20033;-75
2022/05/04 11:19:25;;;;;;;15.23;6.75;;;19.50;89.80;;;;;;5054213;28;20052;-75
2022/05/04 11:21:50;;;;;;;9.38;5.40;;;19.10;90.10;;;;;;5035370;28;20067;-75
2022/05/04 11:24:17;;;;;;;12.00;6.47;;;19.30;90.10;;;;;;5036099;28;20068;-75
2022/05/04 11:26:48;;;;;;;15.02;6.90;;;19.30;90.20;;;;;;5053801;28;20068;-75
2022/05/04 11:29:18;;;;;;;18.67;8.07;;;19.10;90.70;;;;;;5053987;28;20546;-75
2022/05/04 11:31:57;;;;;;;14.70;8.25;;;19.40;90.50;;;;;;5053561;28;20049;-75
2022/05/04 11:34:38;;;;;;;15.27;7.95;;;19.50;90.30;;;;;;5053611;28;20044;-76
2022/05/04 11:37:14;;;;;;;14.35;8.02;;;20.00;90.40;;;;;;5053750;28;20056;-76
2022/05/04 11:39:41;;;;;;;13.63;7.75;;;20.10;90.30;;;;;;5053842;28;20539;-76
2022/05/04 11:42:08;;;;;;;14.63;8.88;;;19.80;90.80;;;;;;5053631;28;20059;-75
2022/05/04 11:44:34;;;;;;;24.13;8.68;;;20.10;90.20;;;;;;5053087;28;20075;-75
2022/05/04 11:47:02;;;;;;;14.60;8.75;;;21.00;90.20;;;;;;5053390;28;20028;-77
2022/05/04 11:49:29;;;;;;;19.67;9.55;;;20.70;88.90;;;;;;5053720;28;20110;-76
2022/05/04 11:51:57;;;;;;;17.88;9.48;;;20.90;89.50;;;;;;5035676;28;20466;-76
2022/05/04 11:54:23;;;;;;;14.55;7.05;;;21.00;89.60;;;;;;5053178;28;20037;-76
2022/05/04 11:56:49;;;;;;;15.77;9.18;;;21.30;90.10;;;;;;5035622;28;20025;-76
2022/05/04 11:59:16;;;;;;;24.88;8.80;;;20.90;89.10;;;;;;5035150;28;20460;-75
2022/05/04 12:01:43;;;;;;;18.23;7.88;;;21.90;88.60;;;;;;5053380;28;20031;-76
2022/05/04 12:04:11;;;;;;;20.25;8.55;;;22.40;87.50;;;;;;5052784;28;20104;-76
2022/05/04 12:06:38;;;;;;;14.60;8.38;;;21.50;87.20;;;;;;5052925;28;20136;-75
2022/05/04 12:09:04;;;;;;;16.77;8.07;;;21.10;89.00;;;;;;5053200;28;20021;-76
2022/05/04 12:11:32;;;;;;;17.83;8.35;;;20.60;89.40;;;;;;5053219;28;20120;-76
2022/05/04 12:13:59;;;;;;;13.85;7.72;;;20.80;88.40;;;;;;5052703;28;20028;-75
2022/05/04 12:16:25;;;;;;;10.50;6.95;;;21.10;90.40;;;;;;5035001;28;20032;-75
2022/05/04 12:18:51;;;;;;;12.63;7.50;;;21.80;88.70;;;;;;5052643;28;20451;-76
2022/05/04 12:21:22;;;;;;;11.85;7.68;;;20.90;87.20;;;;;;5052990;28;20115;-75
2022/05/04 12:23:51;;;;;;;16.00;7.25;;;20.00;89.00;;;;;;5035056;28;20460;-75
2022/05/04 12:26:18;;;;;;;15.40;7.38;;;20.30;90.20;;;;;;5052954;28;20496;-75
2022/05/04 12:33:08;;;;;;;22.23;7.10;;;20.40;90.30;;;;;;5052493;28;20025;-75
2022/05/04 12:34:19;;;;;;;16.73;8.70;;;21.60;89.10;;;;;;5052624;28;20089;-77
2022/05/04 12:36:46;;;;;;;17.33;6.65;;;22.30;86.30;;;;;;5052943;28;20041;-76
2022/05/04 12:39:12;;;;;;;16.88;9.52;;;22.10;88.00;;;;;;5052759;28;20025;-75
2022/05/04 12:41:38;;;;;;;15.20;8.63;;;20.90;90.00;;;;;;5052614;28;20029;-77
2022/05/04 12:44:06;;;;;;;17.40;8.80;;;21.60;89.40;;;;;;5034588;28;20488;-75
2022/05/04 12:46:32;;;;;;;15.60;9.30;;;22.70;88.30;;;;;;5052707;28;20474;-74
2022/05/04 12:48:58;;;;;;;13.38;8.60;;;23.20;86.80;;;;;;5052502;28;20033;-74
2022/05/04 12:51:24;;;;;;;13.32;7.32;;;23.60;85.40;;;;;;5052687;28;20048;-75
2022/05/04 12:53:51;;;;;;;13.73;8.07;;;22.80;86.50;;;;;;5052584;28;20158;-75
2022/05/04 12:59:03;;;;;;;19.27;6.75;;;22.10;86.50;;;;;;5052329;28;20052;-75
2022/05/04 13:01:35;;;;;;;15.40;7.78;;;21.00;89.20;;;;;;5052654;28;20031;-75
2022/05/04 13:04:02;;;;;;;16.40;8.40;;;20.40;89.50;;;;;;5052605;28;20444;-72
2022/05/04 13:06:28;;;;;;;14.93;7.70;;;20.30;90.30;;;;;;5043033;28;20140;-76
2022/05/04 13:08:54;;;;;;;10.68;7.18;;;21.40;90.50;;;;;;5049072;28;20490;-75